THY58 LTFM-VTBS
Flight info
| Callsign | THY58 |
|---|---|
| Flight time | N/A |
| Altitude | 27000 |
| Route | VICEN T380 ASMAP/N0487F330 UL333 LATGA UT363 GURBU DCT REBLO M11 MATAL/N0483F350 T916 SUBUT T923 ERLEV M11 RODAR A909 LEMOD N644 REGET G325 LAKRA P500 PS T400 SULOM M890 LKN R460 BBN/N0498F370 R460 CEA L507 IGONI DCT WILLA WILLA1C |
| Aircraft | B77W/H-SDE1E2E3FGHIJ2J3J4J5M1RWXY/LB1D1 |
Departure
| Time | N/A |
|---|---|
| Airport | İstanbul Airport (LTFM) |
Arrival
| Time | 2026-05-01 08:36 |
|---|---|
| Airport | Suvarnabhumi Airport (VTBS) |
| Time | Latitude | Longitude | Altitude | Speed | Heading |
|---|---|---|---|---|---|
| 2026-05-01 07:23 | 19.64660 | 93.15579 | 36862 ft | 513 kts | 129° |
| 2026-05-01 07:24 | 19.58438 | 93.24823 | 36864 ft | 513 kts | 129° |
| 2026-05-01 07:24 | 19.54290 | 93.30985 | 36859 ft | 513 kts | 129° |
| 2026-05-01 07:25 | 19.50136 | 93.37147 | 36864 ft | 513 kts | 129° |
| 2026-05-01 07:25 | 19.45982 | 93.43300 | 36861 ft | 514 kts | 129° |
| 2026-05-01 07:26 | 19.41849 | 93.49417 | 36861 ft | 513 kts | 129° |
| 2026-05-01 07:26 | 19.37692 | 93.55572 | 36862 ft | 514 kts | 129° |
| 2026-05-01 07:27 | 19.33522 | 93.61731 | 36862 ft | 514 kts | 129° |
| 2026-05-01 07:27 | 19.29346 | 93.67891 | 36861 ft | 515 kts | 129° |
| 2026-05-01 07:28 | 19.25167 | 93.74047 | 36855 ft | 515 kts | 129° |
| 2026-05-01 07:28 | 19.20996 | 93.80197 | 36850 ft | 514 kts | 129° |
| 2026-05-01 07:29 | 19.16819 | 93.86340 | 36852 ft | 513 kts | 129° |
| 2026-05-01 07:29 | 19.12650 | 93.92465 | 36848 ft | 513 kts | 129° |
| 2026-05-01 07:30 | 19.08510 | 93.98544 | 36854 ft | 512 kts | 129° |
| 2026-05-01 07:30 | 19.04349 | 94.04650 | 36851 ft | 511 kts | 129° |
| 2026-05-01 07:31 | 19.00191 | 94.10747 | 36860 ft | 511 kts | 129° |
| 2026-05-01 07:32 | 18.89778 | 94.25982 | 36861 ft | 511 kts | 129° |
| 2026-05-01 07:33 | 18.83521 | 94.35119 | 36859 ft | 512 kts | 129° |
| 2026-05-01 07:33 | 18.77271 | 94.44235 | 36859 ft | 511 kts | 129° |
| 2026-05-01 07:34 | 18.71046 | 94.53297 | 36861 ft | 510 kts | 129° |
| 2026-05-01 07:35 | 18.66878 | 94.59356 | 36859 ft | 509 kts | 129° |
| 2026-05-01 07:35 | 18.62762 | 94.65413 | 36854 ft | 509 kts | 129° |
| 2026-05-01 07:36 | 18.58573 | 94.71435 | 36871 ft | 510 kts | 129° |
| 2026-05-01 07:36 | 18.54451 | 94.77539 | 36874 ft | 511 kts | 127° |
| 2026-05-01 07:37 | 18.48443 | 94.86793 | 36869 ft | 511 kts | 127° |
| 2026-05-01 07:37 | 18.44406 | 94.92966 | 36882 ft | 511 kts | 128° |
| 2026-05-01 07:38 | 18.40352 | 94.99132 | 36867 ft | 512 kts | 128° |
| 2026-05-01 07:39 | 18.34263 | 95.08378 | 36867 ft | 512 kts | 128° |
| 2026-05-01 07:39 | 18.28150 | 95.17577 | 36870 ft | 510 kts | 129° |
| 2026-05-01 07:40 | 18.23932 | 95.23504 | 36882 ft | 509 kts | 130° |
| 2026-05-01 07:40 | 18.19665 | 95.29434 | 36879 ft | 509 kts | 130° |
| 2026-05-01 07:41 | 18.15413 | 95.35382 | 36879 ft | 509 kts | 130° |
| 2026-05-01 07:42 | 18.09060 | 95.44312 | 36879 ft | 508 kts | 130° |
| 2026-05-01 07:42 | 18.04831 | 95.50254 | 36874 ft | 509 kts | 131° |
| 2026-05-01 07:43 | 18.00589 | 95.56209 | 36860 ft | 509 kts | 131° |
| 2026-05-01 07:43 | 17.94226 | 95.65128 | 36862 ft | 508 kts | 131° |
| 2026-05-01 07:44 | 17.85741 | 95.77004 | 36860 ft | 508 kts | 131° |
| 2026-05-01 07:45 | 17.81523 | 95.82896 | 36866 ft | 508 kts | 131° |
| 2026-05-01 07:45 | 17.77277 | 95.88824 | 36862 ft | 508 kts | 131° |
| 2026-05-01 07:46 | 17.73026 | 95.94752 | 36859 ft | 508 kts | 131° |
| 2026-05-01 07:47 | 17.66647 | 96.03642 | 36861 ft | 509 kts | 131° |
| 2026-05-01 07:47 | 17.63103 | 96.08575 | 36851 ft | 509 kts | 131° |
| 2026-05-01 07:48 | 17.56719 | 96.17455 | 36851 ft | 507 kts | 131° |
| 2026-05-01 07:48 | 17.52465 | 96.23362 | 36853 ft | 507 kts | 131° |
| 2026-05-01 07:49 | 17.46085 | 96.32215 | 36861 ft | 507 kts | 131° |
| 2026-05-01 07:50 | 17.41828 | 96.38115 | 36860 ft | 507 kts | 131° |
| 2026-05-01 07:50 | 17.35438 | 96.46966 | 36857 ft | 508 kts | 131° |
| 2026-05-01 07:51 | 17.31179 | 96.52855 | 36861 ft | 507 kts | 131° |
| 2026-05-01 07:52 | 17.24739 | 96.61584 | 36863 ft | 507 kts | 132° |
| 2026-05-01 07:52 | 17.20394 | 96.67439 | 36859 ft | 506 kts | 132° |
| 2026-05-01 07:53 | 17.13953 | 96.76140 | 36858 ft | 507 kts | 132° |
| 2026-05-01 07:53 | 17.09638 | 96.81975 | 36864 ft | 507 kts | 132° |
| 2026-05-01 07:55 | 16.98852 | 96.96507 | 36865 ft | 505 kts | 132° |
| 2026-05-01 07:56 | 16.88046 | 97.11047 | 36862 ft | 511 kts | 132° |
| 2026-05-01 07:57 | 16.81429 | 97.19932 | 36868 ft | 521 kts | 132° |
| 2026-05-01 07:58 | 16.72505 | 97.31906 | 36862 ft | 525 kts | 132° |
| 2026-05-01 07:59 | 16.63530 | 97.43925 | 36861 ft | 525 kts | 132° |
| 2026-05-01 08:00 | 16.50064 | 97.61919 | 36864 ft | 522 kts | 132° |
| 2026-05-01 08:01 | 16.41118 | 97.73847 | 36856 ft | 522 kts | 132° |
| 2026-05-01 08:02 | 16.34021 | 97.82273 | 36850 ft | 514 kts | 143° |
| 2026-05-01 08:03 | 16.25861 | 97.89502 | 36861 ft | 513 kts | 144° |
| 2026-05-01 08:03 | 16.17726 | 97.96761 | 36860 ft | 514 kts | 143° |
| 2026-05-01 08:04 | 16.06921 | 98.06480 | 36860 ft | 514 kts | 143° |
| 2026-05-01 08:05 | 15.98795 | 98.13779 | 36860 ft | 515 kts | 143° |
| 2026-05-01 08:06 | 15.90659 | 98.21074 | 36863 ft | 515 kts | 143° |
| 2026-05-01 08:07 | 15.79837 | 98.30766 | 36867 ft | 514 kts | 143° |
| 2026-05-01 08:08 | 15.71686 | 98.38062 | 36860 ft | 516 kts | 143° |
| 2026-05-01 08:09 | 15.60810 | 98.47768 | 36858 ft | 516 kts | 143° |
| 2026-05-01 08:09 | 15.55368 | 98.52629 | 36862 ft | 516 kts | 143° |
| 2026-05-01 08:10 | 15.44942 | 98.62901 | 36860 ft | 522 kts | 133° |
| 2026-05-01 08:11 | 15.35919 | 98.74624 | 36852 ft | 515 kts | 132° |
| 2026-05-01 08:12 | 15.29336 | 98.83228 | 36859 ft | 510 kts | 127° |
| 2026-05-01 08:13 | 15.23491 | 98.92603 | 36846 ft | 521 kts | 126° |
| 2026-05-01 08:13 | 15.17555 | 99.02145 | 36843 ft | 528 kts | 126° |
| 2026-05-01 08:14 | 15.13549 | 99.08533 | 36835 ft | 528 kts | 126° |
| 2026-05-01 08:14 | 15.09546 | 99.14885 | 36784 ft | 523 kts | 126° |
| 2026-05-01 08:15 | 15.07568 | 99.18032 | 36450 ft | 521 kts | 126° |
| 2026-05-01 08:15 | 15.03590 | 99.24353 | 35749 ft | 527 kts | 126° |
| 2026-05-01 08:15 | 15.01575 | 99.27548 | 35518 ft | 533 kts | 126° |
| 2026-05-01 08:16 | 14.99532 | 99.30782 | 35288 ft | 541 kts | 126° |
| 2026-05-01 08:16 | 14.97471 | 99.34047 | 35030 ft | 543 kts | 126° |
| 2026-05-01 08:16 | 14.95407 | 99.37319 | 34780 ft | 544 kts | 125° |
| 2026-05-01 08:16 | 14.93341 | 99.40598 | 34539 ft | 544 kts | 125° |
| 2026-05-01 08:17 | 14.91272 | 99.43881 | 34291 ft | 544 kts | 125° |
| 2026-05-01 08:17 | 14.89205 | 99.47155 | 34052 ft | 544 kts | 125° |
| 2026-05-01 08:17 | 14.87139 | 99.50427 | 33798 ft | 543 kts | 125° |
| 2026-05-01 08:17 | 14.85076 | 99.53689 | 33551 ft | 539 kts | 125° |
| 2026-05-01 08:18 | 14.83039 | 99.56913 | 32985 ft | 532 kts | 125° |
| 2026-05-01 08:18 | 14.79018 | 99.63271 | 31450 ft | 526 kts | 124° |
| 2026-05-01 08:19 | 14.75033 | 99.69562 | 29759 ft | 522 kts | 124° |
| 2026-05-01 08:19 | 14.73047 | 99.72696 | 28891 ft | 519 kts | 124° |
| 2026-05-01 08:19 | 14.71075 | 99.75801 | 28010 ft | 517 kts | 124° |
| 2026-05-01 08:19 | 14.69110 | 99.78900 | 27122 ft | 515 kts | 124° |
| 2026-05-01 08:20 | 14.67183 | 99.81939 | 26574 ft | 506 kts | 124° |
| 2026-05-01 08:20 | 14.65272 | 99.84952 | 26341 ft | 499 kts | 124° |
| 2026-05-01 08:20 | 14.63378 | 99.87935 | 26115 ft | 503 kts | 124° |
| 2026-05-01 08:20 | 14.61441 | 99.90983 | 25436 ft | 504 kts | 124° |
| 2026-05-01 08:21 | 14.59517 | 99.94013 | 24617 ft | 501 kts | 124° |
| 2026-05-01 08:21 | 14.57614 | 99.97008 | 23831 ft | 497 kts | 124° |
| 2026-05-01 08:21 | 14.55722 | 99.99983 | 23034 ft | 493 kts | 124° |
| 2026-05-01 08:21 | 14.53855 | 100.02919 | 22235 ft | 488 kts | 124° |
| 2026-05-01 08:22 | 14.51998 | 100.05841 | 21437 ft | 483 kts | 124° |
| 2026-05-01 08:22 | 14.50165 | 100.08721 | 20776 ft | 476 kts | 124° |
| 2026-05-01 08:22 | 14.48364 | 100.11548 | 20225 ft | 467 kts | 124° |
| 2026-05-01 08:22 | 14.46595 | 100.14325 | 19729 ft | 458 kts | 124° |
| 2026-05-01 08:23 | 14.44857 | 100.17054 | 19179 ft | 452 kts | 124° |
| 2026-05-01 08:23 | 14.43141 | 100.19745 | 18564 ft | 446 kts | 124° |
| 2026-05-01 08:23 | 14.41440 | 100.22410 | 17903 ft | 442 kts | 124° |
| 2026-05-01 08:23 | 14.39755 | 100.25050 | 17269 ft | 438 kts | 124° |
| 2026-05-01 08:24 | 14.38089 | 100.27664 | 16645 ft | 434 kts | 124° |
| 2026-05-01 08:24 | 14.36440 | 100.30251 | 16036 ft | 429 kts | 124° |
| 2026-05-01 08:24 | 14.34805 | 100.32810 | 15420 ft | 425 kts | 124° |
| 2026-05-01 08:24 | 14.33187 | 100.35344 | 14800 ft | 421 kts | 124° |
| 2026-05-01 08:25 | 14.31586 | 100.37852 | 14184 ft | 417 kts | 124° |
| 2026-05-01 08:25 | 14.29999 | 100.40336 | 13585 ft | 412 kts | 124° |
| 2026-05-01 08:25 | 14.28426 | 100.42798 | 12973 ft | 409 kts | 124° |
| 2026-05-01 08:25 | 14.26867 | 100.45237 | 12367 ft | 405 kts | 124° |
| 2026-05-01 08:26 | 14.25327 | 100.47644 | 11784 ft | 401 kts | 124° |
| 2026-05-01 08:26 | 14.23820 | 100.49999 | 11202 ft | 396 kts | 125° |
| 2026-05-01 08:26 | 14.22306 | 100.52361 | 10561 ft | 393 kts | 124° |
| 2026-05-01 08:26 | 14.20807 | 100.54705 | 9954 ft | 391 kts | 124° |
| 2026-05-01 08:27 | 14.19318 | 100.57033 | 9401 ft | 386 kts | 124° |
| 2026-05-01 08:27 | 14.17845 | 100.59334 | 8864 ft | 382 kts | 124° |
| 2026-05-01 08:27 | 14.16394 | 100.61602 | 8292 ft | 379 kts | 124° |
| 2026-05-01 08:27 | 14.14945 | 100.63865 | 7723 ft | 376 kts | 124° |
| 2026-05-01 08:28 | 14.13510 | 100.66102 | 7191 ft | 372 kts | 124° |
| 2026-05-01 08:28 | 14.12087 | 100.68318 | 6683 ft | 368 kts | 124° |
| 2026-05-01 08:28 | 14.10679 | 100.70509 | 6155 ft | 365 kts | 124° |
| 2026-05-01 08:28 | 14.09284 | 100.72684 | 5654 ft | 362 kts | 124° |
| 2026-05-01 08:29 | 14.07914 | 100.74823 | 5253 ft | 355 kts | 124° |
| 2026-05-01 08:29 | 14.06566 | 100.76927 | 4848 ft | 348 kts | 124° |
| 2026-05-01 08:29 | 14.05238 | 100.78994 | 4444 ft | 342 kts | 124° |
| 2026-05-01 08:29 | 14.03935 | 100.81015 | 4105 ft | 332 kts | 126° |
| 2026-05-01 08:30 | 14.02382 | 100.82654 | 3932 ft | 314 kts | 148° |
| 2026-05-01 08:30 | 14.00392 | 100.83433 | 3798 ft | 303 kts | 172° |
| 2026-05-01 08:30 | 13.98331 | 100.83423 | 3669 ft | 290 kts | 184° |
| 2026-05-01 08:30 | 13.96358 | 100.83195 | 3527 ft | 280 kts | 188° |
| 2026-05-01 08:31 | 13.94476 | 100.82804 | 3383 ft | 272 kts | 193° |
| 2026-05-01 08:31 | 13.93273 | 100.82494 | 3287 ft | 266 kts | 194° |
| 2026-05-01 08:31 | 13.91509 | 100.82018 | 3161 ft | 258 kts | 194° |
| 2026-05-01 08:31 | 13.89796 | 100.81557 | 3012 ft | 252 kts | 194° |
| 2026-05-01 08:32 | 13.88124 | 100.81113 | 2867 ft | 245 kts | 194° |
| 2026-05-01 08:32 | 13.86498 | 100.80682 | 2737 ft | 237 kts | 194° |
| 2026-05-01 08:32 | 13.84429 | 100.80134 | 2532 ft | 227 kts | 194° |
| 2026-05-01 08:32 | 13.83405 | 100.79864 | 2422 ft | 221 kts | 194° |
| 2026-05-01 08:33 | 13.81953 | 100.79479 | 2343 ft | 208 kts | 194° |
| 2026-05-01 08:33 | 13.80584 | 100.79117 | 2203 ft | 198 kts | 195° |
| 2026-05-01 08:33 | 13.79295 | 100.78776 | 2062 ft | 192 kts | 195° |
| 2026-05-01 08:33 | 13.78015 | 100.78438 | 1794 ft | 185 kts | 195° |
| 2026-05-01 08:34 | 13.76803 | 100.78117 | 1574 ft | 171 kts | 195° |
| 2026-05-01 08:34 | 13.75721 | 100.77833 | 1344 ft | 155 kts | 196° |
| 2026-05-01 08:34 | 13.74682 | 100.77557 | 1158 ft | 157 kts | 196° |
| 2026-05-01 08:34 | 13.73616 | 100.77277 | 942 ft | 157 kts | 196° |
| 2026-05-01 08:35 | 13.72571 | 100.76996 | 730 ft | 154 kts | 196° |
| 2026-05-01 08:35 | 13.71538 | 100.76729 | 520 ft | 151 kts | 196° |
| 2026-05-01 08:35 | 13.70524 | 100.76459 | 357 ft | 152 kts | 195° |
| 2026-05-01 08:35 | 13.69487 | 100.76187 | 140 ft | 155 kts | 195° |
| 2026-05-01 08:36 | 13.68450 | 100.75915 | 26 ft | 149 kts | 196° |
| 2026-05-01 08:36 | 13.67552 | 100.75678 | 16 ft | 113 kts | 194° |
| 2026-05-01 08:36 | 13.66950 | 100.75520 | 18 ft | 52 kts | 194° |
| 2026-05-01 08:36 | 13.66692 | 100.75376 | 18 ft | 32 kts | 224° |
| 2026-05-01 08:37 | 13.66693 | 100.75276 | 17 ft | 16 kts | 345° |
| 2026-05-01 08:37 | 13.66806 | 100.75287 | 17 ft | 16 kts | 9° |
| 2026-05-01 08:37 | 13.66916 | 100.75320 | 17 ft | 16 kts | 15° |
| 2026-05-01 08:37 | 13.67025 | 100.75350 | 17 ft | 16 kts | 15° |
| 2026-05-01 08:38 | 13.67136 | 100.75377 | 18 ft | 16 kts | 14° |
| 2026-05-01 08:38 | 13.67246 | 100.75407 | 18 ft | 16 kts | 14° |
| 2026-05-01 08:38 | 13.67357 | 100.75436 | 18 ft | 16 kts | 14° |
| 2026-05-01 08:38 | 13.67468 | 100.75464 | 18 ft | 16 kts | 13° |
| 2026-05-01 08:39 | 13.67578 | 100.75493 | 18 ft | 16 kts | 14° |
| 2026-05-01 08:39 | 13.67689 | 100.75522 | 18 ft | 16 kts | 14° |
| 2026-05-01 08:39 | 13.67799 | 100.75552 | 18 ft | 16 kts | 15° |
| 2026-05-01 08:39 | 13.67908 | 100.75581 | 18 ft | 16 kts | 14° |
| 2026-05-01 08:40 | 13.68090 | 100.75609 | 17 ft | 9 kts | 322° |
| 2026-05-01 08:40 | 13.68131 | 100.75559 | 18 ft | 9 kts | 325° |
| 2026-05-01 08:40 | 13.68196 | 100.75554 | 18 ft | 10 kts | 359° |
| 2026-05-01 08:41 | 13.68248 | 100.75517 | 18 ft | 10 kts | 297° |
| 2026-05-01 08:41 | 13.68266 | 100.75449 | 18 ft | 10 kts | 285° |
| 2026-05-01 08:41 | 13.68284 | 100.75381 | 18 ft | 10 kts | 285° |
| 2026-05-01 08:41 | 13.68301 | 100.75312 | 18 ft | 10 kts | 284° |
| 2026-05-01 08:42 | 13.68319 | 100.75242 | 18 ft | 10 kts | 284° |
| 2026-05-01 08:42 | 13.68337 | 100.75171 | 18 ft | 10 kts | 284° |
| 2026-05-01 08:42 | 13.68355 | 100.75100 | 18 ft | 11 kts | 284° |
| 2026-05-01 08:42 | 13.68373 | 100.75027 | 18 ft | 11 kts | 284° |
| 2026-05-01 08:43 | 13.68392 | 100.74954 | 18 ft | 11 kts | 284° |
| 2026-05-01 08:43 | 13.68410 | 100.74880 | 18 ft | 11 kts | 284° |
| 2026-05-01 08:43 | 13.68428 | 100.74806 | 18 ft | 11 kts | 284° |
| 2026-05-01 08:43 | 13.68447 | 100.74733 | 18 ft | 11 kts | 285° |
| 2026-05-01 08:44 | 13.68447 | 100.74673 | 18 ft | 7 kts | 237° |
| 2026-05-01 08:44 | 13.68399 | 100.74652 | 18 ft | 8 kts | 195° |
| 2026-05-01 08:44 | 13.68379 | 100.74646 | 18 ft | 0 kts | 194° |
| 2026-05-01 08:45 | 13.68375 | 100.74645 | 18 ft | 1 kts | 194° |
| 2026-05-01 08:45 | 13.68371 | 100.74644 | 18 ft | 0 kts | 194° |